Time;durP1;ratioP1;P1;durP2;ratioP2;P2;SDS_P1;SDS_P2;PMS_P1;PMS_P2;Temp;Humidity;BMP_temperature;BMP_pressure;BME280_temperature;BME280_humidity;BME280_pressure;Samples;Min_cycle;Max_cycle;Signal;HPM_P1;HPM_P2
2022/06/01 03:26:32;;;;;;;7.35;5.90;;;11.00;99.90;;;;;;5480444;22;20031;-83
2022/06/01 03:28:58;;;;;;;7.35;6.28;;;10.80;99.90;;;;;;4997869;28;20487;-83
2022/06/01 03:31:25;;;;;;;7.57;6.80;;;10.80;99.90;;;;;;4985414;28;20030;-82
2022/06/01 03:33:52;;;;;;;9.70;7.65;;;10.80;99.90;;;;;;5512207;23;20088;-85
2022/06/01 03:36:21;;;;;;;7.15;5.97;;;10.80;99.90;;;;;;4988903;28;20037;-83
2022/06/01 03:38:47;;;;;;;8.32;7.25;;;10.80;99.90;;;;;;5000170;28;20036;-83
2022/06/01 03:41:14;;;;;;;7.40;6.47;;;10.70;99.90;;;;;;4973517;28;20040;-85
2022/06/01 03:46:25;;;;;;;8.05;7.25;;;10.70;99.90;;;;;;4989733;28;20388;-83
2022/06/01 03:48:52;;;;;;;8.80;7.72;;;10.70;99.90;;;;;;4983400;28;20464;-83
2022/06/01 03:51:19;;;;;;;8.43;7.60;;;10.60;99.90;;;;;;4988895;28;20026;-83
2022/06/01 03:53:46;;;;;;;8.65;7.85;;;10.60;99.90;;;;;;4978578;28;20032;-83
2022/06/01 03:56:13;;;;;;;7.97;7.05;;;10.60;99.90;;;;;;4975832;28;20029;-83
2022/06/01 03:58:40;;;;;;;10.98;7.65;;;10.60;99.90;;;;;;4955092;28;20471;-84
2022/06/01 04:01:08;;;;;;;9.75;8.75;;;10.50;99.90;;;;;;5004968;28;20040;-84
2022/06/01 04:03:35;;;;;;;9.00;8.10;;;10.50;99.90;;;;;;4989690;28;20033;-84
2022/06/01 04:06:01;;;;;;;9.63;8.65;;;10.50;99.90;;;;;;4978902;28;20056;-84
2022/06/01 04:08:28;;;;;;;11.27;10.18;;;10.50;99.90;;;;;;4999580;28;20033;-84
2022/06/01 04:10:54;;;;;;;11.25;8.50;;;10.50;99.90;;;;;;5004925;28;20049;-84
2022/06/01 04:13:24;;;;;;;10.23;9.23;;;10.50;99.90;;;;;;5003800;28;20025;-83
2022/06/01 04:15:51;;;;;;;10.73;9.63;;;10.50;99.90;;;;;;5001802;28;20472;-83
2022/06/01 04:18:17;;;;;;;9.63;8.73;;;10.50;99.90;;;;;;4985119;28;20037;-83
2022/06/01 04:20:45;;;;;;;10.75;8.55;;;10.50;99.90;;;;;;5003587;28;20034;-83
2022/06/01 04:23:12;;;;;;;10.48;9.15;;;10.60;99.90;;;;;;5001787;28;20514;-83
2022/06/01 04:25:38;;;;;;;11.98;10.77;;;10.60;99.90;;;;;;4989175;28;20061;-83
2022/06/01 04:28:05;;;;;;;9.02;8.13;;;10.60;99.90;;;;;;4969944;28;20034;-83
2022/06/01 04:30:31;;;;;;;9.52;8.07;;;10.70;99.90;;;;;;5005841;28;20400;-83
2022/06/01 04:32:58;;;;;;;10.15;9.07;;;10.80;99.90;;;;;;4988201;28;20037;-84
2022/06/01 04:35:25;;;;;;;10.82;9.70;;;10.80;99.90;;;;;;4984538;28;20033;-84
2022/06/01 04:38:12;;;;;;;10.52;9.43;;;11.00;99.90;;;;;;4999276;28;20037;-84
2022/06/01 04:40:40;;;;;;;10.30;9.30;;;11.10;99.90;;;;;;5020309;28;20042;-83
2022/06/01 04:43:07;;;;;;;11.90;10.27;;;11.20;99.90;;;;;;5020620;28;20041;-82
2022/06/01 04:45:33;;;;;;;14.10;11.50;;;11.30;99.90;;;;;;4988076;28;20388;-85
2022/06/01 04:48:00;;;;;;;13.25;11.95;;;11.40;99.90;;;;;;4971845;28;20033;-83
2022/06/01 04:50:26;;;;;;;17.10;15.38;;;11.60;99.90;;;;;;5018419;28;20477;-83
2022/06/01 04:52:53;;;;;;;17.40;14.73;;;11.80;99.90;;;;;;4989015;28;20504;-82
2022/06/01 04:55:19;;;;;;;17.83;16.05;;;11.90;99.90;;;;;;4987592;28;20357;-85
2022/06/01 04:57:46;;;;;;;21.25;17.73;;;11.90;99.90;;;;;;5000143;28;20360;-85
2022/06/01 05:00:13;;;;;;;21.77;19.17;;;11.90;99.90;;;;;;4989394;28;20539;-83
2022/06/01 05:02:39;;;;;;;22.75;20.35;;;12.10;99.90;;;;;;5013561;28;20045;-83
2022/06/01 05:05:06;;;;;;;33.55;27.98;;;12.10;99.90;;;;;;4976953;28;20029;-82
2022/06/01 05:07:33;;;;;;;23.13;19.88;;;12.20;99.90;;;;;;4970800;28;20041;-81
2022/06/01 05:09:59;;;;;;;23.20;20.85;;;12.20;99.90;;;;;;5013469;28;20052;-81
2022/06/01 05:12:26;;;;;;;21.27;19.08;;;12.30;99.90;;;;;;4986752;28;20037;-83
2022/06/01 05:14:52;;;;;;;15.45;13.95;;;12.30;99.90;;;;;;4975391;28;20577;-83
2022/06/01 05:17:19;;;;;;;15.20;13.65;;;12.30;99.90;;;;;;5015958;28;20021;-82
2022/06/01 05:19:45;;;;;;;20.45;18.33;;;12.30;99.90;;;;;;4987973;28;20126;-83
2022/06/01 05:22:14;;;;;;;22.45;19.95;;;12.20;99.90;;;;;;4972888;28;20032;-84
2022/06/01 05:24:40;;;;;;;20.90;18.55;;;12.20;99.90;;;;;;5019282;28;20367;-82
2022/06/01 05:27:07;;;;;;;21.92;19.40;;;12.20;99.90;;;;;;4983555;28;20037;-83
2022/06/01 05:29:35;;;;;;;21.45;18.55;;;12.20;99.90;;;;;;4986302;28;20029;-82
2022/06/01 05:32:04;;;;;;;18.58;16.52;;;12.10;99.90;;;;;;5001736;28;20026;-89
2022/06/01 05:34:31;;;;;;;17.27;15.50;;;12.20;99.90;;;;;;4994550;28;20042;-82
2022/06/01 05:36:57;;;;;;;19.67;17.58;;;12.20;99.90;;;;;;5015717;28;20036;-81
2022/06/01 05:39:24;;;;;;;21.00;18.90;;;12.10;99.90;;;;;;5016004;28;20260;-81
2022/06/01 05:41:51;;;;;;;22.30;18.50;;;12.10;99.90;;;;;;5000546;28;20040;-81
2022/06/01 05:44:18;;;;;;;16.17;14.57;;;12.30;99.90;;;;;;5005026;28;20040;-81
2022/06/01 05:46:44;;;;;;;20.98;18.88;;;12.50;99.90;;;;;;5003099;28;20064;-82
2022/06/01 05:49:13;;;;;;;21.25;18.30;;;12.70;99.90;;;;;;5017893;28;20021;-82
2022/06/01 05:51:39;;;;;;;21.45;19.27;;;12.80;99.90;;;;;;5018488;28;20025;-82
2022/06/01 05:54:06;;;;;;;19.73;16.60;;;13.00;99.90;;;;;;5004129;28;20029;-83
2022/06/01 05:56:32;;;;;;;20.73;16.02;;;13.10;99.90;;;;;;5016562;28;20033;-82
2022/06/01 05:58:59;;;;;;;17.08;15.38;;;13.40;99.90;;;;;;5002227;28;20044;-82
2022/06/01 06:01:25;;;;;;;18.90;16.00;;;13.60;99.90;;;;;;5001502;28;20048;-82
2022/06/01 06:03:52;;;;;;;17.13;15.40;;;13.80;99.90;;;;;;5009934;28;20033;-81
2022/06/01 06:06:20;;;;;;;18.60;16.42;;;14.00;99.90;;;;;;5022483;28;20045;-79
2022/06/01 06:08:53;;;;;;;14.82;13.43;;;14.10;99.90;;;;;;5021617;28;20037;-80
2022/06/01 06:11:21;;;;;;;15.75;14.15;;;14.30;99.90;;;;;;5038518;28;20038;-79
2022/06/01 06:13:47;;;;;;;12.88;11.52;;;14.50;99.90;;;;;;5037998;28;20033;-79
2022/06/01 06:16:16;;;;;;;15.13;13.70;;;14.80;99.90;;;;;;4978793;28;20029;-82
2022/06/01 06:18:43;;;;;;;13.25;12.05;;;15.10;99.90;;;;;;4986562;28;20033;-85
2022/06/01 06:21:09;;;;;;;11.75;10.65;;;15.40;99.90;;;;;;5007538;28;20045;-86
2022/06/01 06:23:36;;;;;;;12.18;11.00;;;15.70;99.90;;;;;;5000041;28;20029;-85
2022/06/01 06:26:03;;;;;;;11.27;10.18;;;15.90;99.90;;;;;;5015729;28;20041;-86
2022/06/01 06:28:31;;;;;;;10.32;9.32;;;16.00;99.90;;;;;;5010003;28;20616;-87
2022/06/01 06:30:57;;;;;;;8.95;8.05;;;16.00;99.90;;;;;;5023445;28;20025;-86
2022/06/01 06:33:24;;;;;;;12.20;9.25;;;16.00;99.90;;;;;;5011878;28;20049;-87
2022/06/01 06:36:03;;;;;;;12.00;8.10;;;16.00;99.90;;;;;;5009160;28;20040;-87
2022/06/01 06:38:32;;;;;;;8.63;7.88;;;16.00;99.90;;;;;;5005931;28;20025;-86
2022/06/01 06:41:00;;;;;;;6.75;6.10;;;16.00;99.90;;;;;;4991095;28;20038;-83
2022/06/01 06:43:29;;;;;;;7.45;5.63;;;16.10;99.90;;;;;;4989215;28;20045;-86
2022/06/01 06:45:58;;;;;;;6.70;6.07;;;16.30;99.90;;;;;;4990065;28;20388;-85
2022/06/01 06:48:25;;;;;;;7.97;6.15;;;16.20;99.90;;;;;;5004567;28;20411;-86
2022/06/01 06:50:52;;;;;;;5.85;5.35;;;16.20;99.90;;;;;;4972393;28;20045;-87
2022/06/01 06:53:18;;;;;;;6.50;5.88;;;16.10;99.90;;;;;;5005451;28;20360;-87
2022/06/01 06:55:45;;;;;;;7.00;5.90;;;16.20;99.90;;;;;;4991501;28;20030;-82
2022/06/01 06:58:12;;;;;;;6.70;5.38;;;16.20;99.90;;;;;;4990302;28;20034;-85
2022/06/01 07:00:38;;;;;;;5.80;4.20;;;16.40;99.90;;;;;;4974667;28;20037;-86
2022/06/01 07:03:06;;;;;;;8.05;6.60;;;16.50;99.90;;;;;;4980113;28;21567;-84
2022/06/01 07:08:18;;;;;;;5.80;5.28;;;16.70;99.90;;;;;;5018785;28;20033;-87
2022/06/01 07:10:45;;;;;;;6.47;4.78;;;16.80;99.90;;;;;;5004959;28;20041;-86
2022/06/01 07:13:12;;;;;;;4.75;3.70;;;17.00;99.90;;;;;;5005488;28;20404;-84
2022/06/01 07:15:42;;;;;;;5.82;5.15;;;17.20;99.90;;;;;;4990417;28;20380;-86
2022/06/01 07:18:08;;;;;;;4.88;3.95;;;17.40;99.90;;;;;;4988201;28;20336;-86
2022/06/01 07:20:35;;;;;;;6.80;4.00;;;17.50;99.90;;;;;;4990776;28;20040;-83
2022/06/01 07:23:01;;;;;;;5.05;4.55;;;17.50;99.90;;;;;;4992573;28;20384;-82
2022/06/01 07:25:28;;;;;;;6.55;3.83;;;17.60;99.90;;;;;;5019011;28;20045;-84
2022/06/01 07:27:55;;;;;;;4.28;3.88;;;17.60;99.90;;;;;;4974657;28;20032;-86
2022/06/01 07:30:22;;;;;;;4.47;3.30;;;17.60;99.90;;;;;;4988087;28;20039;-86
2022/06/01 07:32:49;;;;;;;4.35;3.72;;;17.50;99.90;;;;;;4988514;28;20148;-85
2022/06/01 07:35:18;;;;;;;4.53;2.28;;;17.30;99.90;;;;;;4998401;28;20058;-87
2022/06/01 07:43:17;;;;;;;3.53;2.58;;;17.50;99.90;;;;;;4990694;28;20476;-87
2022/06/01 07:45:46;;;;;;;6.85;3.35;;;17.60;99.90;;;;;;4972895;28;20018;-86
2022/06/01 07:48:13;;;;;;;3.20;2.80;;;17.50;99.90;;;;;;4998206;28;20678;-87
2022/06/01 07:50:40;;;;;;;3.50;2.30;;;17.30;99.90;;;;;;4990062;28;20058;-86
2022/06/01 07:53:08;;;;;;;3.55;2.10;;;17.50;99.90;;;;;;5007995;28;20040;-87
2022/06/01 07:55:36;;;;;;;3.45;2.15;;;17.90;99.90;;;;;;4963914;28;20030;-87
2022/06/01 07:58:04;;;;;;;4.22;2.50;;;18.20;99.90;;;;;;5014729;28;20034;-88
2022/06/01 08:00:31;;;;;;;3.17;2.10;;;18.00;99.90;;;;;;4958621;28;20056;-87
2022/06/01 08:02:58;;;;;;;4.70;3.28;;;17.70;99.90;;;;;;5007660;28;20038;-87
2022/06/01 08:05:26;;;;;;;3.13;1.77;;;17.20;99.90;;;;;;4971540;28;20053;-87
2022/06/01 08:07:55;;;;;;;3.20;2.00;;;16.90;99.90;;;;;;5003906;28;20033;-86
2022/06/01 08:10:21;;;;;;;2.85;1.95;;;16.90;99.90;;;;;;4957275;28;20471;-87
2022/06/01 08:13:07;;;;;;;4.00;1.50;;;17.40;99.90;;;;;;5004212;28;20025;-87
2022/06/01 08:15:43;;;;;;;2.67;1.77;;;17.80;99.90;;;;;;5020786;28;20021;-86
2022/06/01 08:18:12;;;;;;;2.97;1.90;;;18.20;99.90;;;;;;5001754;28;20029;-86
2022/06/01 08:20:39;;;;;;;3.35;1.88;;;18.10;99.90;;;;;;4999349;28;20377;-86
2022/06/01 08:23:06;;;;;;;2.35;1.25;;;17.80;99.90;;;;;;4987410;28;20065;-87
2022/06/01 08:25:33;;;;;;;2.85;1.13;;;17.50;99.90;;;;;;4972930;28;20038;-88
2022/06/01 08:28:00;;;;;;;5.68;1.70;;;17.30;99.90;;;;;;4969284;28;20376;-87
2022/06/01 08:30:37;;;;;;;2.17;1.30;;;16.90;99.90;;;;;;4972151;28;20061;-88
2022/06/01 08:33:05;;;;;;;2.17;1.40;;;16.70;99.90;;;;;;4988358;28;20040;-90
2022/06/01 08:35:35;;;;;;;1.50;0.95;;;16.50;99.90;;;;;;4991457;28;20046;-88
2022/06/01 08:38:03;;;;;;;2.63;1.73;;;16.70;99.90;;;;;;4986245;28;20037;-88
2022/06/01 08:40:34;;;;;;;1.92;1.20;;;17.10;99.90;;;;;;4975821;28;20034;-88
2022/06/01 08:43:13;;;;;;;2.47;1.10;;;17.50;99.90;;;;;;5022346;28;20644;-89
2022/06/01 08:45:46;;;;;;;2.47;1.48;;;17.90;99.90;;;;;;5004209;28;20037;-89
2022/06/01 08:48:16;;;;;;;;;;;18.20;99.90;;;;;;4985793;28;20036;-86
2022/06/01 08:50:46;;;;;;;2.50;1.50;;;18.50;99.90;;;;;;4989569;28;20260;-87
2022/06/01 08:53:12;;;;;;;1.60;1.10;;;18.90;99.90;;;;;;5006311;28;20040;-88
2022/06/01 08:55:58;;;;;;;2.00;0.85;;;19.30;99.90;;;;;;4962582;28;20309;-88
2022/06/01 08:59:01;;;;;;;1.90;1.10;;;19.40;99.90;;;;;;4971363;28;20040;-88
2022/06/01 09:01:50;;;;;;;2.38;1.20;;;19.30;99.90;;;;;;4990504;28;20042;-85
2022/06/01 09:04:35;;;;;;;1.65;0.80;;;19.30;99.90;;;;;;4986678;28;21961;-86
2022/06/01 09:07:14;;;;;;;2.03;1.10;;;19.40;99.90;;;;;;5000338;28;20029;-86
2022/06/01 09:09:59;;;;;;;5.55;1.95;;;19.60;99.90;;;;;;4971957;28;20037;-85
2022/06/01 09:12:26;;;;;;;2.10;1.10;;;19.60;99.90;;;;;;4987984;28;20384;-85
2022/06/01 09:14:57;;;;;;;2.17;1.05;;;19.60;99.90;;;;;;4993406;28;20048;-85
2022/06/01 09:17:24;;;;;;;1.83;1.02;;;19.50;99.90;;;;;;5001140;28;20391;-86
2022/06/01 09:22:42;;;;;;;2.35;0.95;;;19.30;99.90;;;;;;5019668;28;20041;-85
2022/06/01 09:25:13;;;;;;;1.60;0.70;;;19.30;99.90;;;;;;4993496;28;20396;-86
2022/06/01 09:27:51;;;;;;;2.08;0.88;;;19.30;99.90;;;;;;4981482;28;20029;-86
2022/06/01 09:30:18;;;;;;;1.17;0.73;;;19.20;99.90;;;;;;5002959;28;20037;-86
2022/06/01 09:33:20;;;;;;;1.92;0.90;;;19.10;99.90;;;;;;4970144;28;20034;-85
2022/06/01 09:35:58;;;;;;;1.90;1.05;;;18.80;99.90;;;;;;4969801;28;20428;-84
2022/06/01 09:38:54;;;;;;;2.97;0.75;;;18.40;99.90;;;;;;4966072;28;20037;-85
2022/06/01 09:41:24;;;;;;;2.90;0.88;;;18.30;99.90;;;;;;4986066;28;20385;-84
2022/06/01 09:43:56;;;;;;;;;;;18.30;99.90;;;;;;4971587;28;20029;-84
2022/06/01 09:46:33;;;;;;;0.95;0.50;;;18.20;99.90;;;;;;4986758;28;19909;-85
2022/06/01 09:49:09;;;;;;;1.90;0.70;;;18.40;99.90;;;;;;5019280;28;20033;-85
2022/06/01 09:51:40;;;;;;;2.38;1.35;;;18.80;99.90;;;;;;5003756;28;20041;-85
2022/06/01 09:54:24;;;;;;;2.13;0.80;;;19.30;99.90;;;;;;4974861;28;20481;-86
2022/06/01 09:56:51;;;;;;;1.52;0.85;;;19.50;99.90;;;;;;5018497;28;20373;-86
2022/06/01 10:08:17;;;;;;;2.13;1.27;;;19.30;99.90;;;;;;4988892;28;20032;-86
2022/06/01 10:11:29;;;;;;;1.55;1.00;;;19.00;99.90;;;;;;4995561;28;20041;-86
2022/06/01 10:14:18;;;;;;;1.63;0.80;;;18.80;99.90;;;;;;4998009;28;20056;-88
2022/06/01 10:17:15;;;;;;;1.20;0.47;;;18.70;99.90;;;;;;4990168;28;20523;-87
2022/06/01 10:19:51;;;;;;;1.00;0.40;;;19.10;99.90;;;;;;4994419;28;20037;-87
2022/06/01 10:22:34;;;;;;;1.90;0.50;;;19.50;99.90;;;;;;4969329;28;20041;-88
2022/06/01 10:25:24;;;;;;;1.15;0.40;;;20.00;99.90;;;;;;4990138;28;20041;-88
2022/06/01 10:27:58;;;;;;;1.67;0.70;;;20.30;99.60;;;;;;4987918;28;20069;-87
2022/06/01 10:30:33;;;;;;;2.50;0.60;;;20.70;98.60;;;;;;4973920;28;20037;-89
2022/06/01 10:33:23;;;;;;;2.92;0.70;;;21.00;97.80;;;;;;5005340;28;20028;-86
2022/06/01 10:36:05;;;;;;;2.92;0.80;;;21.20;97.00;;;;;;5011593;28;20052;-88
2022/06/01 10:38:41;;;;;;;2.03;0.88;;;21.50;96.70;;;;;;4987466;28;20021;-88
2022/06/01 10:41:10;;;;;;;1.30;0.70;;;22.00;95.90;;;;;;4994150;28;20045;-89
2022/06/01 10:43:57;;;;;;;3.55;0.68;;;22.50;95.70;;;;;;5007592;28;20507;-89
2022/06/01 10:46:23;;;;;;;1.55;0.70;;;23.00;93.90;;;;;;5006960;28;20036;-88
2022/06/01 10:49:21;;;;;;;3.15;0.73;;;23.60;93.10;;;;;;4999526;28;20033;-88
2022/06/01 10:51:57;;;;;;;1.75;0.52;;;23.70;90.30;;;;;;5000651;28;20045;-88
2022/06/01 10:54:36;;;;;;;1.60;0.50;;;23.00;88.40;;;;;;4991375;28;20041;-87
2022/06/01 10:57:15;;;;;;;1.65;0.60;;;22.30;90.00;;;;;;5004624;28;20690;-86
2022/06/01 10:59:42;;;;;;;1.55;0.60;;;21.60;90.00;;;;;;5007254;28;20025;-87
2022/06/01 11:02:38;;;;;;;3.22;0.60;;;20.80;89.40;;;;;;4983958;28;20356;-86
2022/06/01 11:05:27;;;;;;;1.27;0.60;;;20.10;91.00;;;;;;4975627;28;20034;-86
2022/06/01 11:08:15;;;;;;;2.60;0.90;;;19.80;92.20;;;;;;5002943;28;20025;-86
2022/06/01 11:10:50;;;;;;;3.35;1.20;;;19.50;92.60;;;;;;4987526;28;20393;-85
2022/06/01 11:13:16;;;;;;;2.28;1.27;;;19.10;93.40;;;;;;5008025;28;20376;-87
2022/06/01 11:16:12;;;;;;;2.72;1.00;;;19.10;94.10;;;;;;4976124;28;20037;-88
2022/06/01 11:18:54;;;;;;;2.92;1.15;;;19.80;94.80;;;;;;4988684;28;20037;-91
2022/06/01 11:21:52;;;;;;;3.22;1.20;;;20.80;94.70;;;;;;4976983;28;20492;-89
2022/06/01 11:24:54;;;;;;;2.75;0.80;;;21.70;93.30;;;;;;4987860;28;20385;-92
2022/06/01 11:27:27;;;;;;;0.93;0.50;;;22.50;91.80;;;;;;4970299;28;20040;-92
2022/06/01 11:30:02;;;;;;;1.92;0.20;;;23.20;90.40;;;;;;5006200;28;20093;-84
2022/06/01 11:32:53;;;;;;;1.00;0.30;;;23.50;88.50;;;;;;4973672;28;20056;-84
2022/06/01 11:35:42;;;;;;;0.82;0.30;;;23.60;84.50;;;;;;5003967;28;20507;-85
2022/06/01 11:38:12;;;;;;;0.93;0.40;;;23.90;84.70;;;;;;5024335;28;20028;-84
2022/06/01 11:40:49;;;;;;;0.70;0.30;;;24.00;81.30;;;;;;5022712;28;20036;-85
2022/06/01 11:43:29;;;;;;;1.52;0.60;;;24.20;81.90;;;;;;5024634;28;20052;-84
2022/06/01 11:46:02;;;;;;;1.75;0.70;;;24.40;81.60;;;;;;4992338;28;20059;-84
2022/06/01 11:48:34;;;;;;;1.50;0.80;;;24.30;81.10;;;;;;5004880;28;20068;-84
2022/06/01 11:51:16;;;;;;;1.23;0.68;;;24.20;81.70;;;;;;5009333;28;20033;-84
2022/06/01 11:54:04;;;;;;;1.80;1.23;;;23.70;82.40;;;;;;4993889;28;20375;-85
2022/06/01 11:56:44;;;;;;;1.58;0.90;;;23.70;83.10;;;;;;5035103;28;20029;-85
2022/06/01 11:59:21;;;;;;;1.75;1.13;;;24.50;82.50;;;;;;5010533;28;20017;-85
2022/06/01 12:01:57;;;;;;;2.28;1.33;;;25.30;81.10;;;;;;5025663;28;20040;-90
2022/06/01 12:05:03;;;;;;;1.45;0.82;;;25.80;79.70;;;;;;5008318;28;20400;-91
2022/06/01 12:07:49;;;;;;;1.63;1.30;;;25.70;78.30;;;;;;4995449;28;20033;-88
2022/06/01 12:10:32;;;;;;;4.07;2.85;;;25.50;78.60;;;;;;4992988;28;20480;-89
2022/06/01 12:13:48;;;;;;;5.32;4.20;;;26.00;78.70;;;;;;4991881;28;20475;-90
2022/06/01 12:16:30;;;;;;;2.30;1.02;;;26.50;77.70;;;;;;5007246;28;20048;-90
2022/06/01 12:19:08;;;;;;;3.38;2.28;;;26.90;76.60;;;;;;5007069;28;20044;-90
2022/06/01 12:21:55;;;;;;;7.07;6.00;;;27.10;75.00;;;;;;4994428;28;20048;-90
2022/06/01 12:30:05;;;;;;;1.80;0.82;;;26.00;75.40;;;;;;5021436;28;20048;-93
2022/06/01 12:33:00;;;;;;;1.73;0.80;;;26.40;74.90;;;;;;5028205;28;20047;-91
2022/06/01 12:35:31;;;;;;;1.00;0.57;;;26.90;74.10;;;;;;5009146;28;20041;-91
2022/06/01 12:38:08;;;;;;;1.70;0.47;;;27.00;72.40;;;;;;5008412;28;20033;-94
2022/06/01 12:40:52;;;;;;;0.80;0.30;;;26.90;70.30;;;;;;5000304;28;20048;-94
2022/06/01 12:43:20;;;;;;;1.15;0.30;;;26.60;68.90;;;;;;5014290;28;20056;-93
2022/06/01 12:45:46;;;;;;;1.55;0.52;;;26.60;67.90;;;;;;5013822;28;20024;-93
2022/06/01 12:48:19;;;;;;;1.48;0.30;;;26.90;66.00;;;;;;4998052;28;20361;-93
2022/06/01 12:50:55;;;;;;;0.73;0.20;;;26.90;63.00;;;;;;5015170;28;20045;-91
2022/06/01 12:53:46;;;;;;;0.95;0.20;;;26.40;61.80;;;;;;5030174;28;20025;-91
2022/06/01 12:56:17;;;;;;;0.50;0.30;;;26.40;61.80;;;;;;5012471;28;20048;-91
2022/06/01 12:58:52;;;;;;;0.50;0.30;;;27.20;58.70;;;;;;5013944;28;20036;-89
2022/06/01 13:01:21;;;;;;;0.52;0.20;;;27.50;58.50;;;;;;4977606;28;20049;-89
2022/06/01 13:03:50;;;;;;;0.43;0.28;;;27.80;56.90;;;;;;4989184;28;20026;-88
2022/06/01 13:06:23;;;;;;;2.17;0.40;;;27.90;55.50;;;;;;5018589;28;20487;-88
2022/06/01 13:09:11;;;;;;;0.88;0.40;;;27.70;55.80;;;;;;5019905;28;20593;-90
2022/06/01 13:11:39;;;;;;;1.58;0.20;;;26.90;56.30;;;;;;5004883;28;20420;-89
2022/06/01 13:14:09;;;;;;;1.38;0.25;;;26.00;57.10;;;;;;5001878;28;20417;-90
2022/06/01 13:16:40;;;;;;;0.70;0.20;;;25.50;58.40;;;;;;5020878;28;20025;-88
2022/06/01 13:19:21;;;;;;;2.22;0.30;;;25.90;58.40;;;;;;5014940;28;20026;-88
2022/06/01 13:21:57;;;;;;;0.90;0.20;;;26.80;57.30;;;;;;5024552;28;20041;-89
2022/06/01 13:24:25;;;;;;;0.38;0.20;;;27.20;55.70;;;;;;5010158;28;20037;-89
2022/06/01 13:26:54;;;;;;;0.85;0.30;;;27.40;52.80;;;;;;5009104;28;20041;-88
2022/06/01 13:29:34;;;;;;;0.50;0.20;;;26.90;53.40;;;;;;4992244;28;20046;-87
2022/06/01 13:32:08;;;;;;;0.75;0.20;;;26.10;54.60;;;;;;5013415;28;20040;-88
2022/06/01 13:34:50;;;;;;;0.98;0.30;;;25.20;55.60;;;;;;5031825;28;20056;-89
2022/06/01 13:37:17;;;;;;;0.60;0.30;;;24.30;57.20;;;;;;5013301;28;20566;-89
2022/06/01 13:39:59;;;;;;;0.47;0.30;;;23.90;58.10;;;;;;4999211;28;20034;-87
2022/06/01 13:42:46;;;;;;;0.98;0.32;;;24.50;58.30;;;;;;4976908;28;20033;-89
2022/06/01 13:45:22;;;;;;;0.50;0.30;;;24.30;58.00;;;;;;5010663;28;20456;-88
2022/06/01 13:47:49;;;;;;;0.73;0.20;;;23.70;58.30;;;;;;5003310;28;20048;-88
2022/06/01 13:50:15;;;;;;;0.50;0.20;;;23.00;58.90;;;;;;4981447;28;20029;-88
2022/06/01 13:53:18;;;;;;;1.58;0.38;;;22.70;59.90;;;;;;4992790;28;20037;-89
2022/06/01 13:55:57;;;;;;;;;;;23.20;59.40;;;;;;4996386;28;20021;-89
2022/06/01 13:58:41;;;;;;;0.70;0.20;;;24.50;58.40;;;;;;4993074;28;19913;-89
2022/06/01 14:01:30;;;;;;;0.73;0.20;;;25.20;56.00;;;;;;4994180;28;20499;-89
2022/06/01 14:03:59;;;;;;;0.98;0.32;;;24.60;56.20;;;;;;5012772;28;20041;-89
2022/06/01 14:06:43;;;;;;;0.52;0.30;;;23.90;56.20;;;;;;4996417;28;20479;-89
2022/06/01 14:09:13;;;;;;;2.30;0.30;;;24.10;56.40;;;;;;4976626;28;20030;-88
2022/06/01 14:11:40;;;;;;;1.15;0.30;;;24.10;57.00;;;;;;5007252;28;20037;-89
2022/06/01 14:14:15;;;;;;;1.75;0.30;;;23.80;57.40;;;;;;4995257;28;20379;-88
2022/06/01 14:16:49;;;;;;;1.42;0.30;;;23.20;58.20;;;;;;5025890;28;20377;-88
2022/06/01 14:19:16;;;;;;;0.50;0.30;;;22.60;59.70;;;;;;5021890;28;20033;-87
2022/06/01 14:21:43;;;;;;;0.77;0.30;;;22.10;61.10;;;;;;4993006;28;20212;-88
2022/06/01 14:24:09;;;;;;;1.13;0.28;;;22.20;61.80;;;;;;4960876;28;20045;-88
2022/06/01 14:29:24;;;;;;;1.00;0.30;;;24.60;58.30;;;;;;5023330;28;20037;-86
2022/06/01 14:31:52;;;;;;;1.77;0.30;;;24.40;57.70;;;;;;5022767;28;20357;-86
2022/06/01 14:34:22;;;;;;;2.03;0.40;;;24.10;58.40;;;;;;5014833;28;20048;-85
2022/06/01 14:36:49;;;;;;;0.75;0.40;;;23.50;59.00;;;;;;4989920;28;20037;-85
2022/06/01 14:39:19;;;;;;;1.33;0.30;;;22.90;60.40;;;;;;4992690;28;20034;-85
2022/06/01 14:41:49;;;;;;;1.08;0.32;;;22.30;61.30;;;;;;5021616;28;20025;-86
2022/06/01 14:44:23;;;;;;;2.28;0.50;;;22.10;61.90;;;;;;4990730;28;20033;-85
2022/06/01 14:46:53;;;;;;;0.60;0.40;;;22.90;60.30;;;;;;5021296;28;20395;-86
2022/06/01 14:49:25;;;;;;;0.40;0.30;;;22.80;60.00;;;;;;4988674;28;21210;-85
2022/06/01 14:51:59;;;;;;;0.75;0.20;;;22.50;60.30;;;;;;4989706;28;20040;-86
2022/06/01 14:54:28;;;;;;;0.85;0.43;;;22.30;61.10;;;;;;5006906;28;20022;-85
2022/06/01 14:56:55;;;;;;;0.55;0.30;;;23.10;59.40;;;;;;5004070;28;20032;-85
2022/06/01 14:59:21;;;;;;;1.02;0.30;;;23.50;59.00;;;;;;4989548;28;20021;-86
2022/06/01 15:01:52;;;;;;;0.90;0.30;;;24.30;57.90;;;;;;5005987;28;20487;-85
2022/06/01 15:04:24;;;;;;;0.55;0.30;;;24.60;56.20;;;;;;5026224;28;20376;-84
2022/06/01 15:06:51;;;;;;;0.60;0.30;;;24.90;55.60;;;;;;5004635;28;20041;-85
2022/06/01 15:09:18;;;;;;;0.50;0.40;;;24.40;55.50;;;;;;4993120;28;20030;-86
2022/06/01 15:11:44;;;;;;;0.43;0.30;;;23.70;56.50;;;;;;5022955;28;20025;-88
2022/06/01 15:14:12;;;;;;;0.98;0.40;;;23.00;58.00;;;;;;4973333;28;20033;-85
2022/06/01 15:16:40;;;;;;;1.58;0.40;;;22.30;59.40;;;;;;4988898;28;20033;-86
2022/06/01 15:19:07;;;;;;;0.93;0.50;;;21.70;61.10;;;;;;5027269;28;20025;-91
2022/06/01 15:21:34;;;;;;;1.23;0.50;;;21.10;62.90;;;;;;4994682;28;20033;-88
2022/06/01 15:24:01;;;;;;;1.67;0.70;;;20.70;64.50;;;;;;5013273;28;20042;-87
2022/06/01 15:26:28;;;;;;;4.80;0.98;;;20.80;65.60;;;;;;4976743;28;20630;-85
2022/06/01 15:40:22;;;;;;;3.10;0.77;;;21.70;63.70;;;;;;5002530;28;20041;-86
2022/06/01 15:42:52;;;;;;;;;;;21.10;65.20;;;;;;5006606;28;20052;-85
2022/06/01 15:45:22;;;;;;;1.77;1.00;;;20.70;65.90;;;;;;4974403;28;20283;-85
2022/06/01 15:48:09;;;;;;;3.03;1.10;;;20.30;67.20;;;;;;5002734;28;20049;-84
2022/06/01 15:50:42;;;;;;;2.72;0.80;;;20.20;68.40;;;;;;4970316;28;20507;-84
2022/06/01 15:53:12;;;;;;;1.27;0.80;;;20.10;69.00;;;;;;5008302;28;20033;-84
2022/06/01 15:55:42;;;;;;;2.58;0.75;;;20.20;69.20;;;;;;4991931;28;20033;-84
2022/06/01 15:58:11;;;;;;;1.88;0.70;;;20.20;69.20;;;;;;4992993;28;20042;-84
2022/06/01 16:00:41;;;;;;;0.98;0.60;;;20.30;69.20;;;;;;5003537;28;20034;-86
2022/06/01 16:03:29;;;;;;;1.75;0.60;;;20.40;69.30;;;;;;4980895;28;20030;-90
2022/06/01 16:06:03;;;;;;;5.65;3.75;;;20.50;69.20;;;;;;5015499;28;20049;-87
2022/06/01 16:08:29;;;;;;;2.72;1.65;;;20.40;69.30;;;;;;5000949;28;20052;-86
2022/06/01 16:11:02;;;;;;;4.82;3.00;;;20.30;69.70;;;;;;4975278;28;20044;-88
2022/06/01 16:14:10;;;;;;;6.60;4.97;;;20.10;70.20;;;;;;4978947;28;20037;-87
2022/06/01 16:16:39;;;;;;;2.00;1.40;;;20.00;70.90;;;;;;5006826;28;20045;-87
2022/06/01 16:19:08;;;;;;;5.28;4.03;;;19.90;71.30;;;;;;4976638;28;20052;-88
2022/06/01 16:22:32;;;;;;;4.65;4.13;;;19.70;72.00;;;;;;4987762;28;20400;-90
2022/06/01 16:33:08;;;;;;;2.47;1.67;;;18.90;74.80;;;;;;4936911;28;20517;-89
2022/06/01 16:35:38;;;;;;;3.03;1.60;;;18.80;75.00;;;;;;5003828;28;20049;-88
2022/06/01 16:38:07;;;;;;;1.92;1.23;;;18.80;75.30;;;;;;4990528;28;21658;-86
2022/06/01 16:40:34;;;;;;;2.97;1.75;;;18.80;75.70;;;;;;4994255;28;20029;-89
2022/06/01 16:43:02;;;;;;;3.05;1.60;;;18.80;75.80;;;;;;5007849;28;20037;-86
2022/06/01 16:45:42;;;;;;;2.70;1.17;;;18.80;76.00;;;;;;5010039;28;20125;-88
2022/06/01 16:49:30;;;;;;;4.50;2.25;;;19.00;76.00;;;;;;5011099;28;20034;-88
2022/06/01 16:52:04;;;;;;;4.30;1.52;;;19.20;75.60;;;;;;4978627;28;20037;-89
2022/06/01 16:54:47;;;;;;;2.35;1.55;;;19.10;75.50;;;;;;4996293;28;20048;-93
2022/06/01 16:58:04;;;;;;;2.10;0.90;;;18.90;75.50;;;;;;4997471;28;20041;-89
2022/06/01 17:01:31;;;;;;;4.60;1.23;;;18.60;76.00;;;;;;5025955;28;20037;-89
2022/06/01 17:03:58;;;;;;;4.00;1.52;;;18.50;76.80;;;;;;4993049;28;20041;-89
2022/06/01 17:06:25;;;;;;;3.80;1.20;;;18.50;77.00;;;;;;5007483;28;20025;-92
2022/06/01 17:08:53;;;;;;;1.83;1.02;;;18.40;77.50;;;;;;4990584;28;20431;-92
2022/06/01 17:11:24;;;;;;;3.88;1.73;;;18.30;78.00;;;;;;4982294;28;20045;-88
2022/06/01 17:13:51;;;;;;;2.85;1.55;;;18.20;78.40;;;;;;4989652;28;20038;-88
2022/06/01 17:16:21;;;;;;;1.42;0.65;;;18.00;78.70;;;;;;5020324;28;20037;-87
2022/06/01 17:18:50;;;;;;;1.63;1.08;;;17.90;78.80;;;;;;5000518;28;20037;-87
2022/06/01 17:21:21;;;;;;;3.15;1.25;;;17.80;79.40;;;;;;5002818;28;20034;-87
2022/06/01 17:23:51;;;;;;;2.65;0.80;;;17.70;79.60;;;;;;4991695;28;20038;-88
2022/06/01 17:26:20;;;;;;;3.67;1.10;;;17.70;79.80;;;;;;4990332;28;20510;-88
2022/06/01 17:28:49;;;;;;;1.30;0.73;;;17.60;79.60;;;;;;5002050;28;20045;-87
2022/06/01 17:31:22;;;;;;;1.45;0.93;;;17.60;79.80;;;;;;4989798;28;20026;-87
2022/06/01 17:33:49;;;;;;;3.13;0.90;;;17.70;79.80;;;;;;5020644;28;20038;-87